Accueil
METAR-TAF:

METAR-TAF

Aéroports :

Aéroport international Princess Juliana

Saint-Martin, Antilles néerlandaises

latitude: 18-03N, longitude: 063-07W, altitude: 4 m

Observation

Le bulletin a été fait il y a 24 minutes, à 19:00 UTC
Vent 11 kt de est/nord-est, variant entre nord-est et est
Température 30°C
Humidité 62%
Pression 1011 hPa
Visibilité 10 km ou plus
Nuages épars à une hauteur de 1900 ft

METAR: TNCM 201900Z 07011KT 040V100 9999 SCT019 30/22 Q1010 A2984 NOSIG

Heure: 15:24 (19:24 UTC)

Prévision

Le bulletin a été fait il y a 1 heure et 44 minutes, à 17:40 UTC
Prévision valable du 20 à 18 UTC au 21 à 18 UTC
Vent 10 kt de est
Visibilité: 10 km
Nuages épars à une hauteur de 2000 ft
averses à proximité

TAF: TNCM 201740Z 2018/2118 08010KT P6SM VCSH SCT020

Observations et prévisions météorologiques de plus de 4000 aéroports (messages METAR et TAF).

Les stations disponibles sont représentées par des disques jaunes et rouges sur la carte.

Passer la souris dessus pour voir le nom de la station.

Cliquer dessus pour voir les observations et prévisions météorologiques.

Pour changer de carte: cliquez sur les boutons verts avec une croix noire pour zoomer, sur le bouton vert avec un tiret pour effectuer un zoom arrière, ou sur les flèches vertes pour les cartes adjacentes.


METAR-TAF: